Terminal Aerodrome Forecast
Issued by NWS

Home | Current Version | Previous Version | Text Only | Print | Product List | Glossary On
Versions: 1 2 3 4 5 6 7 8 9 10 11 12 13 14 15 16 17 18 19 20 21 22 23 24 25 26 27 28
000
FTUS46 KOTX 021737
TAFCOE
TAF
KCOE 021737Z 0218/0318 03011KT P6SM VCSH SCT030 BKN050 OVC100
     FM022100 01010G15KT P6SM -SHSN SCT025 OVC050
      TEMPO 0223/0302 5SM -SHSN BR OVC025
     FM030300 03014G19KT P6SM FEW025 BKN050 BKN100
     FM030600 03011KT P6SM FEW050 SCT200
      AMD LTD TO CLD AND VIS=

USA.gov is the U.S. government's official web portal to all federal, state and local government web resources and services.